Lantana, Florida
Current Conditions -  °F | °C
As of 1:53 AM on Monday 24 Nov 2014 (Local Time) from KPBI Reporting Station
Broken Clouds Broken Clouds  
Wind Chill: 79°   Ceiling: 4500
Heat Index: 83°   Visibility: 10mi
Dew Point: 75°   Wind: 10mph
Humidity: 88%   Direction: 150°SSE
Pressure: 29.94"   Gusts: NA
Location:  26.5758°N, 80.0835°W
Report Text: KPBI 240653Z 15009KT 10SM SCT017 BKN045 BKN050 26/24 A2994 RMK AO2 RAB12E24B44E53 SLP138 P0000 T02610239
Loading
Personal Weather Stations






























Interactive Weather Map New forecast layout! Learn more

10-Day Weather Forecast

Advertisements
Track Severe Weather on mobile